Furrs, Mississippi
Current Conditions -  °F | °C
As of 3:53 PM on Sunday 25 Jan 2015 (Local Time) from KTUP Reporting Station
Scattered Clouds Scattered Clouds  
Wind Chill: 58°   Ceiling: Unl
Heat Index: 58°   Visibility: 10mi
Dew Point: 39°   Wind: 12mph
Humidity: 49%   Direction: 280°W
Pressure: 29.73"   Gusts: 23mph
Location:  34.1762°N, 88.9612°W
Report Text: KTUP 252153Z 28010G20KT 10SM SCT047 SCT080 14/04 A2973 RMK AO2 SLP068 T01440039
Loading
Personal Weather Stations






























Interactive Weather Map New forecast layout! Learn more

10-Day Weather Forecast

Advertisements
Track Severe Weather on mobile